createdAt,value
2019-05-02T00:01:07.219Z,8.10
2019-05-02T00:03:41.093Z,8.77
2019-05-02T00:06:09.248Z,7.90
2019-05-02T00:08:38.315Z,6.83
2019-05-02T00:11:08.851Z,8.80
2019-05-02T00:13:37.561Z,9.57
2019-05-02T00:16:09.082Z,7.73
2019-05-02T00:18:39.017Z,7.10
2019-05-02T00:21:09.357Z,6.87
2019-05-02T00:23:37.978Z,8.07
2019-05-02T00:26:06.880Z,7.47
2019-05-02T00:28:38.099Z,7.83
2019-05-02T00:31:11.466Z,7.47
2019-05-02T00:33:38.371Z,7.93
2019-05-02T00:36:07.411Z,6.57
2019-05-02T00:38:38.570Z,42.20
2019-05-02T00:41:08.883Z,24.43
2019-05-02T00:43:37.824Z,21.80
2019-05-02T00:46:07.613Z,10.80
2019-05-02T00:48:44.815Z,16.17
2019-05-02T00:51:13.764Z,10.17
2019-05-02T00:53:44.412Z,23.03
2019-05-02T00:56:13.303Z,12.33
2019-05-02T00:58:42.143Z,14.83
2019-05-02T01:01:12.588Z,8.40
2019-05-02T01:03:47.140Z,11.87
2019-05-02T01:06:14.473Z,12.97
2019-05-02T01:08:43.521Z,9.27
2019-05-02T01:11:12.699Z,11.23
2019-05-02T01:13:41.712Z,15.10
2019-05-02T01:16:15.256Z,11.90
2019-05-02T01:18:42.578Z,15.80
2019-05-02T01:21:11.712Z,12.03
2019-05-02T01:23:41.303Z,10.70
2019-05-02T01:26:11.106Z,13.40
2019-05-02T01:28:49.295Z,18.03
2019-05-02T01:31:32.524Z,18.97
2019-05-02T01:34:18.084Z,19.00
2019-05-02T01:36:47.252Z,15.33
2019-05-02T01:39:15.956Z,13.40
2019-05-02T01:41:45.418Z,14.73
2019-05-02T01:44:14.057Z,16.77
2019-05-02T01:46:43.370Z,18.57
2019-05-02T01:49:12.284Z,13.57
2019-05-02T01:51:41.850Z,19.13
2019-05-02T01:54:11.740Z,14.60
2019-05-02T01:56:40.382Z,16.60
2019-05-02T01:59:10.065Z,17.73
2019-05-02T02:01:38.739Z,17.77
2019-05-02T02:04:07.662Z,14.27
2019-05-02T02:06:38.895Z,17.00
2019-05-02T02:09:09.706Z,16.70
2019-05-02T02:11:40.233Z,17.57
2019-05-02T02:14:12.843Z,19.07
2019-05-02T02:16:42.002Z,18.70
2019-05-02T02:19:15.240Z,18.13
2019-05-02T02:21:48.941Z,21.27
2019-05-02T02:24:25.100Z,19.47
2019-05-02T02:26:53.183Z,16.37
2019-05-02T02:29:22.147Z,21.67
2019-05-02T02:31:51.062Z,16.87
2019-05-02T02:34:28.689Z,20.03
2019-05-02T02:36:51.663Z,17.77
2019-05-02T02:39:21.737Z,18.50
2019-05-02T02:41:54.195Z,15.67
2019-05-02T02:44:33.776Z,18.33
2019-05-02T02:47:03.945Z,17.57
2019-05-02T02:49:33.255Z,22.00
2019-05-02T02:52:04.707Z,22.80
2019-05-02T02:54:36.514Z,19.70
2019-05-02T02:57:05.131Z,19.53
2019-05-02T02:59:34.113Z,17.90
2019-05-02T03:02:09.740Z,19.70
2019-05-02T03:04:34.404Z,20.67
2019-05-02T03:07:03.400Z,19.23
2019-05-02T03:09:33.684Z,21.97
2019-05-02T03:12:22.838Z,23.50
2019-05-02T03:14:56.465Z,22.63
2019-05-02T03:17:28.842Z,19.70
2019-05-02T03:20:00.958Z,22.73
2019-05-02T03:22:28.555Z,21.43
2019-05-02T03:24:59.263Z,24.30
2019-05-02T03:27:29.981Z,23.20
2019-05-02T03:29:59.418Z,20.90
2019-05-02T03:32:34.254Z,23.43
2019-05-02T03:34:59.815Z,19.20
2019-05-02T03:37:28.806Z,23.13
2019-05-02T03:40:00.362Z,23.70
2019-05-02T03:42:27.982Z,25.10
2019-05-02T03:45:04.084Z,21.93
2019-05-02T03:47:27.918Z,21.13
2019-05-02T03:49:57.163Z,22.47
2019-05-02T03:52:25.790Z,20.60
2019-05-02T03:54:54.622Z,21.03
2019-05-02T03:57:32.170Z,24.10
2019-05-02T03:59:55.035Z,22.07
2019-05-02T04:02:24.274Z,19.40
2019-05-02T04:04:59.884Z,20.33
2019-05-02T04:07:24.526Z,19.40
2019-05-02T04:09:54.000Z,23.17
2019-05-02T04:12:22.637Z,19.17
2019-05-02T04:14:55.525Z,18.97
2019-05-02T04:17:28.636Z,23.67
2019-05-02T04:19:54.044Z,18.93
2019-05-02T04:22:23.361Z,19.33
2019-05-02T04:24:56.805Z,23.67
2019-05-02T04:27:27.696Z,17.23
2019-05-02T04:29:53.495Z,17.70
2019-05-02T04:32:23.238Z,21.93
2019-05-02T04:34:55.630Z,22.80
2019-05-02T04:37:24.586Z,24.13
2019-05-02T04:39:57.877Z,16.33
2019-05-02T04:42:24.758Z,27.10
2019-05-02T04:45:16.244Z,19.00
2019-05-02T04:47:24.310Z,17.13
2019-05-02T04:49:54.752Z,18.53
2019-05-02T04:52:24.884Z,21.07
2019-05-02T04:55:08.305Z,20.90
2019-05-02T04:57:36.769Z,22.80
2019-05-02T05:00:06.454Z,22.60
2019-05-02T05:02:35.903Z,18.03
2019-05-02T05:05:00.535Z,19.43
2019-05-02T05:07:39.913Z,20.53
2019-05-02T05:10:03.354Z,24.30
2019-05-02T05:12:37.995Z,19.63
2019-05-02T05:15:04.613Z,20.50
2019-05-02T05:17:34.290Z,21.90
2019-05-02T05:20:13.708Z,24.87
2019-05-02T05:22:44.328Z,25.17
2019-05-02T05:25:17.802Z,17.90
2019-05-02T05:27:45.111Z,18.27
2019-05-02T05:30:15.611Z,24.53
2019-05-02T05:32:47.793Z,18.00
2019-05-02T05:35:18.554Z,21.30
2019-05-02T05:37:52.788Z,18.23
2019-05-02T05:40:22.572Z,24.90
2019-05-02T05:42:52.829Z,25.17
2019-05-02T05:45:21.480Z,25.83
2019-05-02T05:47:52.481Z,22.10
2019-05-02T05:50:24.226Z,23.40
2019-05-02T05:52:59.285Z,30.00
2019-05-02T05:55:28.162Z,21.63
2019-05-02T05:58:01.382Z,15.23
2019-05-02T06:00:28.881Z,29.73
2019-05-02T06:03:10.318Z,20.80
2019-05-02T06:05:40.451Z,20.23
2019-05-02T06:08:03.684Z,24.70
2019-05-02T06:10:39.051Z,14.57
2019-05-02T06:13:11.020Z,25.33
2019-05-02T06:15:39.135Z,17.90
2019-05-02T06:18:09.913Z,19.83
2019-05-02T06:20:39.538Z,23.70
2019-05-02T06:23:08.410Z,22.80
2019-05-02T06:25:38.078Z,17.60
2019-05-02T06:28:08.128Z,19.80
2019-05-02T06:30:36.823Z,20.77
2019-05-02T06:33:05.758Z,26.13
2019-05-02T06:35:36.404Z,16.73
2019-05-02T06:38:05.170Z,20.63
2019-05-02T06:40:34.236Z,17.20
2019-05-02T06:43:04.160Z,20.77
2019-05-02T06:45:37.597Z,20.50
2019-05-02T06:48:04.798Z,19.93
2019-05-02T06:50:38.669Z,15.83
2019-05-02T06:53:09.634Z,19.13
2019-05-02T06:55:38.537Z,18.37
2019-05-02T06:58:08.152Z,19.07
2019-05-02T07:00:56.078Z,17.70
2019-05-02T07:03:11.493Z,15.90
2019-05-02T07:05:40.966Z,15.17
2019-05-02T07:08:12.115Z,15.83
2019-05-02T07:10:44.849Z,15.30
2019-05-02T07:13:14.979Z,16.07
2019-05-02T07:15:48.222Z,18.13
2019-05-02T07:18:27.152Z,14.03
2019-05-02T07:20:56.491Z,19.40
2019-05-02T07:23:25.215Z,19.50
2019-05-02T07:25:53.876Z,14.97
2019-05-02T07:28:24.124Z,13.57
2019-05-02T07:30:54.821Z,18.13
2019-05-02T07:33:23.600Z,15.03
2019-05-02T07:35:55.202Z,12.13
2019-05-02T07:38:25.777Z,15.37
2019-05-02T07:40:54.339Z,16.40
2019-05-02T07:43:23.174Z,12.93
2019-05-02T07:45:53.242Z,13.83
2019-05-02T07:48:22.913Z,10.93
2019-05-02T07:50:52.415Z,15.00
2019-05-02T07:53:21.665Z,13.00
2019-05-02T07:55:51.200Z,14.90
2019-05-02T07:58:20.111Z,13.43
2019-05-02T08:00:48.680Z,15.10
2019-05-02T08:03:18.147Z,11.97
2019-05-02T08:05:47.727Z,13.53
2019-05-02T08:08:18.780Z,13.57
2019-05-02T08:10:47.842Z,15.17
2019-05-02T08:13:17.566Z,15.27
2019-05-02T08:15:50.752Z,9.53
2019-05-02T08:18:17.187Z,12.40
2019-05-02T08:20:46.217Z,12.83
2019-05-02T08:23:15.351Z,11.70
2019-05-02T08:25:45.450Z,16.40
2019-05-02T08:28:18.007Z,14.00
2019-05-02T08:30:48.607Z,16.07
2019-05-02T08:33:18.303Z,19.97
2019-05-02T08:35:47.320Z,11.00
2019-05-02T08:38:17.887Z,14.47
2019-05-02T08:40:49.624Z,14.67
2019-05-02T08:43:18.950Z,19.20
2019-05-02T08:45:47.894Z,12.97
2019-05-02T08:48:17.382Z,8.53
2019-05-02T08:50:48.066Z,12.27
2019-05-02T08:53:19.723Z,12.20
2019-05-02T08:55:47.387Z,9.07
2019-05-02T08:58:16.427Z,14.00
2019-05-02T09:00:47.363Z,12.50
2019-05-02T09:03:17.176Z,12.70
2019-05-02T09:05:47.479Z,12.03
2019-05-02T09:08:17.253Z,11.00
2019-05-02T09:10:47.592Z,12.77
2019-05-02T09:13:25.959Z,13.80
2019-05-02T09:15:51.195Z,10.60
2019-05-02T09:18:22.262Z,13.07
2019-05-02T09:20:56.199Z,8.83
2019-05-02T09:23:22.876Z,14.07
2019-05-02T09:25:52.883Z,16.60
2019-05-02T09:28:25.409Z,10.90
2019-05-02T09:30:57.415Z,14.97
2019-05-02T09:33:23.709Z,17.93
2019-05-02T09:35:52.393Z,11.80
2019-05-02T09:38:22.217Z,13.23
2019-05-02T09:40:54.498Z,18.53
2019-05-02T09:43:22.864Z,15.97
2019-05-02T09:45:52.132Z,14.73
2019-05-02T09:48:22.870Z,16.33
2019-05-02T09:50:52.804Z,14.20
2019-05-02T09:53:25.516Z,13.17
2019-05-02T09:55:57.157Z,15.20
2019-05-02T09:58:23.999Z,12.17
2019-05-02T10:00:57.318Z,11.47
2019-05-02T10:03:26.019Z,9.47
2019-05-02T10:05:54.734Z,13.13
2019-05-02T10:08:23.554Z,14.67
2019-05-02T10:10:52.713Z,14.27
2019-05-02T10:13:22.842Z,17.33
2019-05-02T10:15:52.758Z,18.10
2019-05-02T10:18:28.619Z,16.23
2019-05-02T10:20:52.529Z,27.23
2019-05-02T10:23:23.341Z,32.20
2019-05-02T10:25:52.172Z,26.30
2019-05-02T10:28:22.869Z,20.10
2019-05-02T10:30:56.481Z,14.57
2019-05-02T10:33:27.927Z,17.33
2019-05-02T10:35:55.429Z,24.30
2019-05-02T10:38:24.076Z,23.83
2019-05-02T10:40:54.775Z,19.33
2019-05-02T10:43:23.125Z,27.20
2019-05-02T10:45:56.418Z,44.33
2019-05-02T10:48:28.182Z,41.63
2019-05-02T10:50:55.809Z,18.03
2019-05-02T10:53:24.492Z,16.57
2019-05-02T10:55:53.145Z,14.97
2019-05-02T10:58:26.177Z,14.07
2019-05-02T11:00:52.446Z,9.00
2019-05-02T11:03:22.881Z,13.67
2019-05-02T11:06:05.520Z,11.73
2019-05-02T11:08:36.905Z,16.37
2019-05-02T11:11:05.971Z,9.77
2019-05-02T11:13:43.978Z,14.70
2019-05-02T11:16:17.085Z,17.53
2019-05-02T11:18:56.599Z,14.93
2019-05-02T11:21:25.366Z,19.50
2019-05-02T11:23:54.061Z,16.87
2019-05-02T11:26:25.054Z,21.13
2019-05-02T11:28:53.236Z,22.53
2019-05-02T11:31:22.002Z,17.83
2019-05-02T11:33:52.715Z,16.43
2019-05-02T11:36:22.317Z,14.60
2019-05-02T11:39:00.433Z,12.73
2019-05-02T11:41:22.463Z,15.03
2019-05-02T11:43:54.062Z,22.03
2019-05-02T11:46:22.092Z,16.10
2019-05-02T11:48:56.283Z,15.47
2019-05-02T11:51:22.727Z,18.63
2019-05-02T11:53:52.741Z,17.23
2019-05-02T11:56:22.205Z,15.37
2019-05-02T11:58:52.854Z,14.80
2019-05-02T12:01:35.004Z,14.00
2019-05-02T12:03:56.926Z,13.50
2019-05-02T12:06:25.569Z,16.23
2019-05-02T12:08:54.213Z,14.93
2019-05-02T12:11:23.174Z,11.37
2019-05-02T12:13:56.806Z,16.60
2019-05-02T12:16:23.013Z,19.23
2019-05-02T12:18:53.765Z,14.67
2019-05-02T12:21:22.934Z,16.33
2019-05-02T12:23:52.759Z,17.90
2019-05-02T12:26:22.184Z,19.03
2019-05-02T12:28:52.630Z,19.33
2019-05-02T12:31:26.759Z,20.27
2019-05-02T12:33:56.354Z,16.27
2019-05-02T12:36:25.024Z,13.70
2019-05-02T12:38:53.764Z,15.30
2019-05-02T12:41:25.099Z,13.43
2019-05-02T12:43:52.769Z,11.67
2019-05-02T12:46:22.194Z,10.53
2019-05-02T12:48:51.912Z,12.27
2019-05-02T12:51:22.590Z,16.10
2019-05-02T12:53:52.786Z,23.97
2019-05-02T12:56:22.862Z,18.43
2019-05-02T12:58:52.916Z,32.17
2019-05-02T13:01:22.145Z,15.47
2019-05-02T13:04:04.763Z,15.50
2019-05-02T13:06:33.377Z,11.07
2019-05-02T13:09:03.109Z,12.30
2019-05-02T13:11:42.234Z,11.10
2019-05-02T13:14:16.959Z,15.67
2019-05-02T13:16:38.117Z,9.17
2019-05-02T13:19:06.947Z,11.77
2019-05-02T13:21:43.097Z,10.23
2019-05-02T13:24:16.198Z,11.23
2019-05-02T13:26:42.991Z,10.47
2019-05-02T13:29:11.851Z,10.53
2019-05-02T13:31:45.012Z,11.23
2019-05-02T13:34:22.074Z,21.80
2019-05-02T13:36:52.146Z,16.77
2019-05-02T13:39:22.730Z,10.70
2019-05-02T13:41:52.202Z,13.73
2019-05-02T13:44:23.121Z,13.53
2019-05-02T13:46:53.567Z,16.00
2019-05-02T13:49:22.503Z,14.00
2019-05-02T13:51:52.101Z,14.93
2019-05-02T13:54:22.088Z,19.17
2019-05-02T13:56:52.697Z,19.50
2019-05-02T13:59:22.335Z,19.60
2019-05-02T14:01:52.707Z,15.37
2019-05-02T14:04:23.300Z,12.77
2019-05-02T14:06:52.976Z,11.13
2019-05-02T14:09:32.490Z,9.20
2019-05-02T14:12:08.628Z,12.57
2019-05-02T14:14:37.335Z,13.03
2019-05-02T14:17:06.179Z,11.40
2019-05-02T14:19:34.828Z,14.87
2019-05-02T14:22:04.433Z,13.33
2019-05-02T14:24:33.093Z,9.70
2019-05-02T14:27:02.694Z,10.63
2019-05-02T14:29:32.978Z,15.03
2019-05-02T14:32:02.731Z,13.63
2019-05-02T14:34:42.623Z,14.03
2019-05-02T14:37:11.879Z,17.37
2019-05-02T14:39:41.666Z,15.43
2019-05-02T14:42:15.289Z,12.97
2019-05-02T14:45:04.136Z,11.10
2019-05-02T14:47:18.182Z,13.17
2019-05-02T14:49:42.946Z,13.07
2019-05-02T14:52:12.632Z,17.30
2019-05-02T14:54:43.871Z,16.47
2019-05-02T14:57:17.095Z,16.30
2019-05-02T14:59:43.724Z,14.67
2019-05-02T15:02:14.117Z,16.30
2019-05-02T15:04:44.358Z,17.07
2019-05-02T15:07:13.166Z,13.73
2019-05-02T15:09:41.899Z,12.97
2019-05-02T15:12:15.854Z,13.57
2019-05-02T15:14:43.133Z,11.33
2019-05-02T15:17:12.121Z,11.20
2019-05-02T15:19:42.724Z,12.07
2019-05-02T15:22:12.415Z,10.00
2019-05-02T15:24:42.395Z,10.33
2019-05-02T15:27:17.030Z,12.87
2019-05-02T15:29:42.087Z,14.37
2019-05-02T15:32:18.428Z,8.60
2019-05-02T15:35:05.116Z,10.97
2019-05-02T15:37:35.865Z,8.53
2019-05-02T15:42:37.326Z,13.83
2019-05-02T15:45:07.219Z,12.63
2019-05-02T15:47:37.179Z,17.17
2019-05-02T15:50:07.206Z,14.03
2019-05-02T15:52:37.473Z,13.80
2019-05-02T15:55:07.468Z,10.90
2019-05-02T15:57:43.083Z,16.83
2019-05-02T16:00:09.995Z,11.60
2019-05-02T16:02:38.645Z,11.33
2019-05-02T16:05:08.695Z,14.43
2019-05-02T16:07:38.005Z,12.60
2019-05-02T16:10:10.614Z,17.27
2019-05-02T16:12:41.800Z,18.87
2019-05-02T16:15:18.106Z,17.07
2019-05-02T16:17:42.310Z,12.37
2019-05-02T16:20:13.650Z,17.60
2019-05-02T16:22:46.223Z,15.87
2019-05-02T16:25:13.024Z,12.07
2019-05-02T16:27:45.721Z,14.13
2019-05-02T16:30:17.494Z,17.43
2019-05-02T16:32:52.256Z,15.17
2019-05-02T16:35:22.674Z,16.00
2019-05-02T16:37:55.687Z,12.70
2019-05-02T16:40:29.601Z,15.60
2019-05-02T16:42:52.584Z,9.57
2019-05-02T16:45:22.250Z,19.20
2019-05-02T16:47:58.545Z,16.43
2019-05-02T16:50:22.889Z,16.90
2019-05-02T16:52:53.137Z,12.03
2019-05-02T16:55:26.361Z,17.83
2019-05-02T16:57:56.575Z,15.73
2019-05-02T17:00:24.809Z,15.60
2019-05-02T17:02:53.422Z,18.20
2019-05-02T17:05:22.221Z,22.47
2019-05-02T17:08:02.242Z,22.40
2019-05-02T17:10:35.031Z,16.97
2019-05-02T17:13:03.069Z,17.93
2019-05-02T17:15:36.466Z,15.70
2019-05-02T17:18:12.600Z,11.63
2019-05-02T17:20:36.833Z,17.63
2019-05-02T17:23:07.488Z,15.97
2019-05-02T17:25:35.841Z,17.17
2019-05-02T17:28:08.459Z,15.87
2019-05-02T17:30:39.161Z,17.63
2019-05-02T17:33:07.070Z,19.27
2019-05-02T17:35:36.135Z,13.60
2019-05-02T17:38:05.412Z,13.53
2019-05-02T17:40:34.468Z,16.53
2019-05-02T17:43:06.896Z,13.70
2019-05-02T17:45:38.602Z,13.40
2019-05-02T17:48:09.896Z,14.27
2019-05-02T17:50:38.963Z,19.77
2019-05-02T17:53:08.824Z,14.00
2019-05-02T17:55:40.365Z,13.90
2019-05-02T17:58:16.383Z,12.13
2019-05-02T18:00:47.375Z,16.60
2019-05-02T18:03:17.881Z,13.37
2019-05-02T18:05:46.606Z,16.57
2019-05-02T18:08:17.753Z,15.20
2019-05-02T18:10:50.597Z,11.50
2019-05-02T18:13:17.390Z,15.30
2019-05-02T18:15:49.189Z,13.33
2019-05-02T18:18:18.632Z,15.57
2019-05-02T18:20:47.643Z,15.53
2019-05-02T18:23:18.683Z,20.13
2019-05-02T18:25:47.743Z,15.13
2019-05-02T18:28:22.323Z,29.67
2019-05-02T18:30:46.927Z,21.07
2019-05-02T18:33:17.200Z,23.83
2019-05-02T18:35:47.017Z,18.97
2019-05-02T18:38:20.937Z,24.03
2019-05-02T18:40:46.549Z,15.10
2019-05-02T18:43:15.305Z,20.30
2019-05-02T18:45:44.455Z,31.10
2019-05-02T18:48:13.417Z,25.00
2019-05-02T18:50:47.614Z,32.33
2019-05-02T18:53:18.479Z,35.00
2019-05-02T18:55:46.035Z,28.70
2019-05-02T18:58:14.984Z,29.87
2019-05-02T19:00:45.212Z,23.90
2019-05-02T19:03:17.177Z,22.03
2019-05-02T19:05:46.678Z,19.63
2019-05-02T19:08:28.199Z,26.33
2019-05-02T19:11:02.478Z,33.30
2019-05-02T19:13:17.230Z,26.63
2019-05-02T19:15:49.145Z,19.40
2019-05-02T19:18:19.589Z,20.83
2019-05-02T19:20:57.493Z,24.80
2019-05-02T19:23:27.247Z,28.43
2019-05-02T19:25:55.990Z,23.43
2019-05-02T19:28:42.880Z,24.90
2019-05-02T19:31:11.690Z,26.70
2019-05-02T19:33:42.708Z,20.20
2019-05-02T19:36:10.812Z,16.80
2019-05-02T19:38:39.440Z,19.10
2019-05-02T19:41:09.339Z,25.37
2019-05-02T19:43:40.500Z,18.63
2019-05-02T19:46:11.994Z,22.77
2019-05-02T19:48:42.905Z,18.93
2019-05-02T19:51:18.727Z,22.20
2019-05-02T19:53:42.619Z,24.67
2019-05-02T19:56:12.827Z,23.37
2019-05-02T19:58:46.654Z,34.70
2019-05-02T20:01:17.488Z,41.33
2019-05-02T20:03:45.412Z,43.97
2019-05-02T20:06:15.853Z,38.17
2019-05-02T20:08:44.535Z,48.40
2019-05-02T20:11:14.183Z,41.80
2019-05-02T20:13:43.227Z,39.13
2019-05-02T20:16:23.478Z,35.87
2019-05-02T20:18:52.647Z,37.30
2019-05-02T20:21:27.972Z,35.63
2019-05-02T20:23:57.644Z,35.57
2019-05-02T20:26:26.297Z,37.20
2019-05-02T20:28:57.984Z,40.47
2019-05-02T20:31:26.784Z,36.57
2019-05-02T20:33:55.845Z,36.93
2019-05-02T20:36:24.831Z,30.20
2019-05-02T20:38:54.326Z,25.63
2019-05-02T20:41:23.378Z,22.07
2019-05-02T20:43:52.032Z,20.77
2019-05-02T20:46:21.839Z,29.87
2019-05-02T20:48:52.591Z,24.83
2019-05-02T20:51:22.786Z,30.87
2019-05-02T20:53:52.600Z,21.00
2019-05-02T20:56:23.039Z,19.10
2019-05-02T20:58:52.646Z,24.40
2019-05-02T21:01:23.378Z,21.47
2019-05-02T21:03:52.356Z,20.93
2019-05-02T21:06:37.025Z,16.03
2019-05-02T21:09:02.384Z,18.07
2019-05-02T21:11:32.428Z,17.80
2019-05-02T21:14:01.790Z,26.40
2019-05-02T21:16:34.831Z,24.63
2019-05-02T21:19:03.630Z,24.90
2019-05-02T21:21:33.906Z,18.70
2019-05-02T21:24:03.900Z,19.70
2019-05-02T21:26:33.403Z,13.43
2019-05-02T21:29:03.041Z,15.90
2019-05-02T21:31:32.036Z,16.33
2019-05-02T21:34:02.548Z,16.33
2019-05-02T21:36:32.001Z,16.30
2019-05-02T21:39:02.790Z,17.73
2019-05-02T21:41:33.022Z,18.63
2019-05-02T21:44:02.553Z,19.20
2019-05-02T21:46:32.029Z,17.27
2019-05-02T21:49:01.117Z,17.70
2019-05-02T21:51:35.402Z,16.00
2019-05-02T21:54:12.208Z,12.97
2019-05-02T21:56:49.138Z,15.83
2019-05-02T21:59:19.623Z,19.30
2019-05-02T22:01:53.630Z,18.40
2019-05-02T22:04:22.946Z,15.13
2019-05-02T22:06:52.704Z,19.33
2019-05-02T22:09:23.051Z,17.83
2019-05-02T22:11:52.677Z,17.23
2019-05-02T22:14:22.540Z,15.37
2019-05-02T22:16:53.161Z,19.33
2019-05-02T22:19:23.284Z,15.10
2019-05-02T22:21:52.599Z,14.17
2019-05-02T22:24:21.529Z,21.80
2019-05-02T22:26:50.226Z,16.57
2019-05-02T22:29:18.863Z,21.07
2019-05-02T22:31:47.935Z,22.67
2019-05-02T22:34:17.545Z,12.97
2019-05-02T22:36:47.101Z,18.07
2019-05-02T22:39:19.000Z,16.37
2019-05-02T22:41:48.666Z,16.47
2019-05-02T22:44:18.291Z,12.70
2019-05-02T22:46:47.283Z,13.43
2019-05-02T22:49:16.951Z,15.67
2019-05-02T22:51:46.555Z,18.23
2019-05-02T22:54:26.963Z,18.03
2019-05-02T22:56:46.761Z,14.87
2019-05-02T22:59:15.399Z,14.40
2019-05-02T23:01:44.371Z,16.07
2019-05-02T23:04:13.007Z,14.70
2019-05-02T23:06:44.254Z,12.70
2019-05-02T23:09:13.512Z,16.33
2019-05-02T23:11:42.749Z,16.80
2019-05-02T23:14:11.992Z,22.23
2019-05-02T23:16:42.709Z,15.07
2019-05-02T23:19:12.349Z,14.40
2019-05-02T23:21:42.371Z,15.17
2019-05-02T23:24:14.667Z,19.67
2019-05-02T23:26:51.811Z,20.47
2019-05-02T23:29:22.462Z,19.30
2019-05-02T23:31:51.873Z,14.77
2019-05-02T23:34:23.348Z,14.77
2019-05-02T23:36:52.224Z,15.00
2019-05-02T23:39:21.485Z,20.70
2019-05-02T23:41:52.491Z,16.23
2019-05-02T23:44:22.853Z,14.20
2019-05-02T23:46:52.532Z,13.80
2019-05-02T23:49:22.177Z,13.77
2019-05-02T23:51:51.560Z,14.93
2019-05-02T23:54:22.069Z,14.73
2019-05-02T23:56:51.745Z,18.17
2019-05-02T23:59:22.234Z,16.23
